Time;durP1;ratioP1;P1;durP2;ratioP2;P2;SDS_P1;SDS_P2;PMS_P1;PMS_P2;Temp;Humidity;BMP_temperature;BMP_pressure;BME280_temperature;BME280_humidity;BME280_pressure;Samples;Min_cycle;Max_cycle;Signal;HPM_P1;HPM_P2
2024/01/22 00:01:20;;;;;;;8.80;6.20;;;;;;;-3.48;72.08;101773.16;108862;1253;71062;-80
2024/01/22 00:03:47;;;;;;;12.10;6.10;;;;;;;-3.50;72.12;101772.15;107071;1253;59142;-78
2024/01/22 00:06:15;;;;;;;12.10;7.10;;;;;;;-3.48;72.39;101768.66;106551;1253;60426;-78
2024/01/22 00:08:43;;;;;;;9.80;5.80;;;;;;;-3.38;72.19;101764.66;106067;1257;72588;-79
2024/01/22 00:11:13;;;;;;;8.80;5.80;;;;;;;-3.32;71.92;101764.38;106146;1256;69179;-80
2024/01/22 00:13:41;;;;;;;11.70;7.30;;;;;;;-3.37;71.97;101755.29;106217;1253;72730;-78
2024/01/22 00:16:08;;;;;;;11.60;7.30;;;;;;;-3.47;71.92;101752.19;106513;1257;60570;-78
2024/01/22 00:18:36;;;;;;;13.00;7.20;;;;;;;-3.57;71.97;101746.81;106022;1254;60578;-78
2024/01/22 00:21:04;;;;;;;10.00;6.20;;;;;;;-3.59;72.18;101751.02;105917;1253;73823;-78
2024/01/22 00:23:31;;;;;;;12.10;7.60;;;;;;;-3.51;72.13;101755.90;105944;1257;69275;-77
2024/01/22 00:25:59;;;;;;;10.90;7.60;;;;;;;-3.44;72.26;101752.81;105883;1253;71396;-78
2024/01/22 00:28:27;;;;;;;14.00;8.60;;;;;;;-3.49;72.19;101746.51;106142;1255;60421;-77
2024/01/22 00:30:54;;;;;;;13.20;7.90;;;;;;;-3.58;72.25;101748.92;105877;1252;60596;-78
2024/01/22 00:33:22;;;;;;;14.30;7.50;;;;;;;-3.66;72.19;101754.09;106145;1253;72529;-80
2024/01/22 00:35:49;;;;;;;10.30;6.70;;;;;;;-3.69;72.26;101755.88;106141;1253;68699;-78
2024/01/22 00:38:17;;;;;;;14.20;7.30;;;;;;;-3.60;72.12;101756.24;105886;1256;71209;-80
2024/01/22 00:40:44;;;;;;;13.70;8.50;;;;;;;-3.54;72.32;101753.70;106005;1253;60436;-78
2024/01/22 00:43:12;;;;;;;14.20;8.60;;;;;;;-3.54;72.56;101753.02;106015;1256;60338;-78
2024/01/22 00:45:40;;;;;;;13.60;8.00;;;;;;;-3.56;72.62;101757.04;105862;1253;73974;-79
2024/01/22 00:48:07;;;;;;;18.10;8.30;;;;;;;-3.59;72.66;101755.18;106000;1253;68964;-78
2024/01/22 00:50:35;;;;;;;13.70;7.70;;;;;;;-3.56;72.63;101758.07;106119;1253;71167;-78
2024/01/22 00:53:03;;;;;;;13.20;8.20;;;;;;;-3.46;72.32;101760.65;106565;1253;60965;-77
2024/01/22 00:55:30;;;;;;;13.30;8.40;;;;;;;-3.45;72.15;101763.23;108009;1253;60370;-78
2024/01/22 00:57:59;;;;;;;14.80;8.90;;;;;;;-3.51;72.21;101759.88;109175;1253;72382;-79
2024/01/22 01:00:27;;;;;;;12.90;8.50;;;;;;;-3.62;72.27;101757.48;107970;1253;68888;-78
2024/01/22 01:02:54;;;;;;;12.60;7.60;;;;;;;-3.72;72.42;101753.16;106429;1253;72731;-81
2024/01/22 01:05:22;;;;;;;11.60;8.00;;;;;;;-3.77;72.37;101749.61;106477;1253;60893;-77
2024/01/22 01:07:49;;;;;;;11.90;7.70;;;;;;;-3.72;72.29;101746.75;105905;1253;60537;-77
2024/01/22 01:10:17;;;;;;;13.90;8.80;;;;;;;-3.69;72.39;101751.55;105969;1253;72358;-78
2024/01/22 01:12:44;;;;;;;15.00;9.00;;;;;;;-3.77;72.62;101751.17;105943;1258;70509;-78
2024/01/22 01:15:12;;;;;;;13.70;9.30;;;;;;;-3.83;72.69;101753.35;105841;1253;71356;-78
2024/01/22 01:17:39;;;;;;;16.30;9.10;;;;;;;-3.90;72.70;101755.20;105939;1253;60441;-80
2024/01/22 01:20:07;;;;;;;13.10;7.40;;;;;;;-3.93;72.68;101757.88;105835;1253;60550;-80
2024/01/22 01:22:35;;;;;;;12.80;8.10;;;;;;;-3.89;72.15;101754.67;105843;1252;72738;-80
2024/01/22 01:25:03;;;;;;;11.80;7.40;;;;;;;-3.93;72.05;101755.25;105941;1253;70837;-79
2024/01/22 01:27:31;;;;;;;11.60;7.30;;;;;;;-4.03;72.29;101770.65;106044;1253;72440;-80
2024/01/22 01:29:58;;;;;;;12.50;7.40;;;;;;;-4.15;72.60;101770.86;106136;1253;60569;-79
2024/01/22 01:32:26;;;;;;;12.00;6.90;;;;;;;-4.30;72.88;101771.78;106853;1253;60581;-78
2024/01/22 01:34:54;;;;;;;10.70;6.90;;;;;;;-4.36;73.00;101778.63;106139;1255;72681;-79
2024/01/22 01:37:21;;;;;;;10.40;6.50;;;;;;;-4.29;73.30;101773.14;106122;1256;69043;-81
2024/01/22 01:39:49;;;;;;;12.60;7.70;;;;;;;-4.28;73.31;101781.27;106107;1252;71342;-81
2024/01/22 01:42:17;;;;;;;10.20;7.50;;;;;;;-4.27;73.85;101784.88;106156;1258;60442;-79
2024/01/22 01:44:49;;;;;;;13.50;8.70;;;;;;;-4.23;74.00;101777.39;106286;1253;60805;-78
2024/01/22 01:47:17;;;;;;;13.00;8.60;;;;;;;-4.23;73.79;101768.73;106336;1258;74304;-79
2024/01/22 01:49:46;;;;;;;14.50;8.20;;;;;;;-4.20;73.86;101763.99;106594;1253;70028;-77
2024/01/22 01:52:13;;;;;;;10.90;6.90;;;;;;;-4.09;73.30;101753.63;107234;1254;71441;-80
2024/01/22 01:54:42;;;;;;;13.20;7.90;;;;;;;-4.12;73.40;101747.09;109054;1253;60729;-79
2024/01/22 01:57:10;;;;;;;14.90;7.80;;;;;;;-4.20;73.58;101752.08;107035;1253;60330;-79
2024/01/22 01:59:42;;;;;;;11.40;7.60;;;;;;;-4.26;73.92;101750.45;106249;1258;73776;-78
2024/01/22 02:02:10;;;;;;;14.00;7.20;;;;;;;-4.28;73.89;101747.01;106087;1253;70194;-78
2024/01/22 02:04:37;;;;;;;13.30;7.40;;;;;;;-4.26;73.84;101742.31;106037;1257;72758;-77
2024/01/22 02:07:05;;;;;;;12.70;7.90;;;;;;;-4.20;73.84;101741.86;106041;1258;60322;-79
2024/01/22 02:09:49;;;;;;;12.50;8.00;;;;;;;-4.24;73.97;101745.73;105916;1253;62421;-80
2024/01/22 02:12:17;;;;;;;11.70;7.70;;;;;;;-4.27;74.32;101750.10;106278;1257;73868;-80
2024/01/22 02:14:46;;;;;;;11.90;7.60;;;;;;;-4.33;74.55;101752.29;107181;1253;69072;-77
2024/01/22 02:17:15;;;;;;;15.40;8.20;;;;;;;-4.37;74.61;101752.67;108437;1254;71726;-78
2024/01/22 02:19:43;;;;;;;11.20;6.70;;;;;;;-4.34;74.29;101753.68;107686;1253;60419;-79
2024/01/22 02:22:11;;;;;;;10.00;6.90;;;;;;;-4.25;74.14;101763.40;107751;1253;60367;-77
2024/01/22 02:24:39;;;;;;;13.70;8.20;;;;;;;-4.23;74.13;101761.63;108362;1251;72621;-77
2024/01/22 02:27:06;;;;;;;13.30;8.10;;;;;;;-4.27;74.18;101759.11;108450;1253;68713;-78
2024/01/22 02:29:34;;;;;;;11.10;6.60;;;;;;;-4.29;74.48;101769.15;106001;1253;72056;-79
2024/01/22 02:32:02;;;;;;;20.20;10.20;;;;;;;-4.30;74.32;101768.33;105893;1256;60426;-80
2024/01/22 02:34:29;;;;;;;19.90;11.90;;;;;;;-4.24;74.24;101767.38;105921;1253;60456;-79
2024/01/22 02:36:56;;;;;;;12.00;7.50;;;;;;;-4.20;74.14;101770.58;105869;1253;73727;-79
2024/01/22 02:39:24;;;;;;;12.80;7.90;;;;;;;-4.29;74.37;101770.39;105986;1257;69192;-79
2024/01/22 02:41:52;;;;;;;15.00;7.70;;;;;;;-4.43;74.53;101772.83;105962;1253;71377;-80
2024/01/22 02:44:19;;;;;;;14.70;8.40;;;;;;;-4.51;74.76;101766.56;105941;1255;60493;-76
2024/01/22 02:46:47;;;;;;;10.60;6.80;;;;;;;-4.57;75.25;101766.64;106684;1253;60850;-78
2024/01/22 02:49:15;;;;;;;12.80;7.70;;;;;;;-4.59;74.98;101769.27;107902;1252;72794;-79
2024/01/22 02:51:43;;;;;;;12.80;7.50;;;;;;;-4.49;74.88;101764.80;109128;1253;69394;-79
2024/01/22 02:54:13;;;;;;;12.30;8.10;;;;;;;-4.46;74.85;101768.91;109359;1252;71777;-80
2024/01/22 02:56:41;;;;;;;13.60;7.70;;;;;;;-4.50;75.09;101771.38;108351;1257;60425;-78
2024/01/22 02:59:08;;;;;;;15.80;8.80;;;;;;;-4.52;75.10;101772.97;106645;1253;60508;-80
2024/01/22 03:01:36;;;;;;;16.10;8.90;;;;;;;-4.56;74.87;101777.70;106580;1252;74093;-80
2024/01/22 03:04:04;;;;;;;19.60;9.40;;;;;;;-4.58;74.89;101770.98;105942;1258;69234;-79
2024/01/22 03:06:31;;;;;;;22.70;10.30;;;;;;;-4.46;74.70;101766.48;106058;1253;71347;-81
2024/01/22 03:08:59;;;;;;;14.40;8.80;;;;;;;-4.46;74.59;101768.02;105959;1259;60631;-78
2024/01/22 03:11:26;;;;;;;21.30;10.00;;;;;;;-4.52;75.01;101768.48;105949;1253;60547;-78
2024/01/22 03:13:54;;;;;;;14.60;8.90;;;;;;;-4.59;75.16;101772.38;105979;1254;72359;-78
2024/01/22 03:16:22;;;;;;;15.40;8.70;;;;;;;-4.66;75.21;101766.77;105781;1253;69058;-78
2024/01/22 03:18:49;;;;;;;16.10;8.50;;;;;;;-4.66;75.12;101759.67;105953;1253;72626;-77
2024/01/22 03:21:17;;;;;;;17.40;8.30;;;;;;;-4.54;75.07;101755.53;105889;1259;60419;-79
2024/01/22 03:23:45;;;;;;;20.00;9.50;;;;;;;-4.49;75.27;101761.34;106015;1255;60544;-78
2024/01/22 03:26:22;;;;;;;18.40;11.00;;;;;;;-4.51;75.34;101762.92;105929;1254;73855;-77
2024/01/22 03:28:50;;;;;;;19.70;10.70;;;;;;;-4.55;75.51;101757.97;105764;1253;69331;-77
2024/01/22 03:31:24;;;;;;;23.70;11.30;;;;;;;-4.58;75.10;101765.80;106974;1253;72740;-78
2024/01/22 03:33:52;;;;;;;17.70;9.40;;;;;;;-4.60;75.17;101763.05;108906;1253;60578;-77
2024/01/22 03:36:21;;;;;;;22.00;9.90;;;;;;;-4.49;74.89;101767.05;107623;1252;60550;-79
2024/01/22 03:38:49;;;;;;;19.40;9.90;;;;;;;-4.49;75.10;101764.28;105890;1253;72577;-77
2024/01/22 03:41:17;;;;;;;20.60;11.40;;;;;;;-4.57;75.15;101764.73;105980;1257;69160;-77
2024/01/22 03:43:44;;;;;;;17.00;9.90;;;;;;;-4.63;75.48;101757.89;105917;1253;72668;-79
2024/01/22 03:46:13;;;;;;;17.20;9.50;;;;;;;-4.65;75.68;101748.95;105886;1258;60440;-77
2024/01/22 03:48:40;;;;;;;17.00;9.80;;;;;;;-4.62;75.73;101748.04;106350;1253;60460;-78
2024/01/22 03:51:08;;;;;;;17.60;9.50;;;;;;;-4.50;75.49;101750.98;108644;1252;72374;-76
2024/01/22 03:53:36;;;;;;;15.20;8.90;;;;;;;-4.48;75.68;101755.09;109075;1253;68735;-76
2024/01/22 03:56:06;;;;;;;17.20;9.00;;;;;;;-4.49;75.74;101762.02;106580;1253;71482;-77
2024/01/22 03:58:33;;;;;;;17.00;8.90;;;;;;;-4.53;75.61;101761.58;106634;1256;60773;-76
2024/01/22 04:01:01;;;;;;;14.70;9.20;;;;;;;-4.61;75.71;101753.55;106211;1253;60878;-79
2024/01/22 04:03:33;;;;;;;12.90;7.90;;;;;;;-4.63;75.65;101762.75;105896;1257;73849;-78
2024/01/22 04:06:01;;;;;;;16.10;8.80;;;;;;;-4.61;75.69;101765.66;106012;1257;69211;-79
2024/01/22 04:08:29;;;;;;;15.50;8.80;;;;;;;-4.69;75.61;101765.09;106367;1255;72638;-77
2024/01/22 04:10:56;;;;;;;16.70;8.80;;;;;;;-4.76;76.02;101767.08;106021;1256;60443;-78
2024/01/22 04:13:24;;;;;;;15.20;8.00;;;;;;;-4.81;76.12;101770.43;105973;1256;60327;-79
2024/01/22 04:16:01;;;;;;;13.50;8.80;;;;;;;-4.79;75.92;101761.91;105817;1258;74696;-79
2024/01/22 04:18:28;;;;;;;15.30;9.10;;;;;;;-4.69;75.91;101758.50;105865;1253;70685;-79
2024/01/22 04:20:56;;;;;;;13.00;8.20;;;;;;;-4.68;75.94;101764.73;105829;1253;72648;-78
2024/01/22 04:23:24;;;;;;;15.20;8.50;;;;;;;-4.72;76.01;101772.04;105849;1254;60529;-78
2024/01/22 04:25:52;;;;;;;13.20;8.90;;;;;;;-4.81;75.98;101764.04;105912;1253;60646;-78
2024/01/22 04:28:19;;;;;;;13.30;8.50;;;;;;;-4.88;76.19;101762.94;105715;1253;72552;-78
2024/01/22 04:30:47;;;;;;;13.60;6.90;;;;;;;-4.88;76.46;101760.15;105675;1258;68876;-77
2024/01/22 04:33:14;;;;;;;14.60;7.90;;;;;;;-4.75;76.40;101758.24;105826;1253;72444;-79
2024/01/22 04:35:42;;;;;;;15.70;8.30;;;;;;;-4.73;76.49;101759.09;105799;1262;60486;-78
2024/01/22 04:38:10;;;;;;;17.50;9.80;;;;;;;-4.80;76.71;101754.52;105803;1258;60451;-79
2024/01/22 04:40:37;;;;;;;14.30;9.10;;;;;;;-4.83;77.05;101751.79;105885;1253;73848;-78
2024/01/22 04:43:04;;;;;;;17.20;9.50;;;;;;;-4.87;76.99;101749.43;105979;1253;70301;-79
2024/01/22 04:45:32;;;;;;;15.60;9.90;;;;;;;-4.82;77.12;101744.16;106483;1253;72713;-78
2024/01/22 04:47:59;;;;;;;14.10;8.30;;;;;;;-4.70;76.99;101742.45;108225;1253;60416;-77
2024/01/22 04:50:27;;;;;;;16.00;9.80;;;;;;;-4.69;76.98;101735.17;108383;1253;60262;-79
2024/01/22 04:52:55;;;;;;;16.80;10.30;;;;;;;-4.71;77.15;101733.65;107354;1252;72485;-79
2024/01/22 04:55:22;;;;;;;20.00;11.40;;;;;;;-4.72;77.12;101724.30;106039;1253;70308;-78
2024/01/22 04:57:53;;;;;;;18.80;11.30;;;;;;;-4.76;77.11;101721.77;106117;1253;72737;-79
2024/01/22 05:00:20;;;;;;;18.30;10.40;;;;;;;-4.77;77.37;101724.89;105720;1254;61695;-79
2024/01/22 05:02:47;;;;;;;17.50;11.10;;;;;;;-4.71;77.21;101720.33;105641;1254;60435;-78
2024/01/22 05:05:15;;;;;;;17.90;9.90;;;;;;;-4.62;77.21;101721.23;105821;1259;72596;-77
2024/01/22 05:07:43;;;;;;;16.00;10.20;;;;;;;-4.62;77.25;101723.66;105898;1258;68724;-80
2024/01/22 05:10:13;;;;;;;20.70;11.10;;;;;;;-4.67;77.30;101725.45;105808;1258;71361;-80
2024/01/22 05:12:41;;;;;;;15.30;10.20;;;;;;;-4.73;77.51;101737.99;105885;1258;60522;-80
2024/01/22 05:15:11;;;;;;;16.00;9.50;;;;;;;-4.81;77.61;101731.70;105890;1253;60323;-79
2024/01/22 05:17:39;;;;;;;17.70;10.10;;;;;;;-4.77;77.61;101729.05;105962;1257;73935;-80
2024/01/22 05:20:08;;;;;;;16.70;10.00;;;;;;;-4.70;77.64;101728.78;106068;1253;68897;-81
2024/01/22 05:22:36;;;;;;;15.60;9.80;;;;;;;-4.76;77.75;101730.59;106108;1254;71644;-80
2024/01/22 05:25:04;;;;;;;14.30;9.90;;;;;;;-4.81;78.00;101729.81;106405;1253;60364;-78
2024/01/22 05:27:31;;;;;;;15.70;9.30;;;;;;;-4.85;78.04;101729.17;106133;1258;224776;-79
2024/01/22 05:32:49;;;;;;;17.70;10.60;;;;;;;-4.72;77.88;101727.09;102832;1292;601142;-79
2024/01/22 05:35:19;;;;;;;18.30;11.10;;;;;;;-4.76;77.91;101724.20;105020;1272;59168;-78
2024/01/22 05:37:49;;;;;;;18.80;11.40;;;;;;;-4.81;78.13;101725.83;104874;1266;60155;-78
2024/01/22 05:40:17;;;;;;;20.00;11.90;;;;;;;-4.87;78.36;101724.01;105000;1267;70481;-78
2024/01/22 05:42:44;;;;;;;17.00;9.70;;;;;;;-4.86;78.42;101723.83;104848;1273;70473;-80
2024/01/22 05:45:13;;;;;;;14.90;10.40;;;;;;;-4.73;78.43;101729.70;105812;1273;71357;-77
2024/01/22 05:47:41;;;;;;;15.90;10.40;;;;;;;-4.68;78.37;101725.82;107863;1265;146565;-77
2024/01/22 05:50:10;;;;;;;18.50;11.50;;;;;;;-4.71;78.42;101725.86;108347;1266;58902;-76
2024/01/22 05:52:38;;;;;;;19.90;11.60;;;;;;;-4.72;78.49;101722.43;106020;1266;73078;-76
2024/01/22 05:55:06;;;;;;;16.70;10.60;;;;;;;-4.74;78.57;101722.45;105805;1259;68986;-78
2024/01/22 05:57:34;;;;;;;18.90;12.10;;;;;;;-4.71;78.51;101724.14;105692;1264;71267;-78
2024/01/22 06:00:09;;;;;;;19.40;11.20;;;;;;;-4.67;78.26;101718.71;105758;1257;59561;-79
2024/01/22 06:02:40;;;;;;;22.40;11.90;;;;;;;-4.70;78.43;101701.99;107060;1254;60014;-82
2024/01/22 06:05:09;;;;;;;20.40;13.10;;;;;;;-4.73;78.70;101698.77;106491;1259;72871;-80
2024/01/22 06:07:37;;;;;;;24.60;13.40;;;;;;;-4.76;78.86;101696.72;106142;1259;68378;-80
2024/01/22 06:10:08;;;;;;;20.70;12.70;;;;;;;-4.72;78.91;101690.95;105981;1257;75351;-81
2024/01/22 06:12:36;;;;;;;19.10;12.60;;;;;;;-4.60;78.73;101698.04;106189;1260;59775;-80
2024/01/22 06:15:04;;;;;;;20.50;12.50;;;;;;;-4.59;78.70;101697.15;106202;1257;60094;-77
2024/01/22 06:17:32;;;;;;;20.60;13.20;;;;;;;-4.63;78.53;101701.02;105682;1255;70900;-77
2024/01/22 06:20:00;;;;;;;22.40;14.20;;;;;;;-4.70;78.54;101693.68;105889;1259;68812;-79
2024/01/22 06:22:29;;;;;;;20.20;12.40;;;;;;;-4.72;78.94;101695.63;106657;1254;72755;-81
2024/01/22 06:24:56;;;;;;;19.50;12.40;;;;;;;-4.64;78.83;101691.35;108277;1260;60408;-81
2024/01/22 06:27:24;;;;;;;23.00;14.70;;;;;;;-4.57;78.66;101686.06;108472;1254;59651;-83
2024/01/22 06:29:53;;;;;;;24.20;14.50;;;;;;;-4.58;78.69;101691.44;109329;1254;71932;-82
2024/01/22 06:32:21;;;;;;;24.50;15.20;;;;;;;-4.61;78.73;101684.20;107348;1261;69308;-80
2024/01/22 06:34:48;;;;;;;22.00;14.30;;;;;;;-4.64;78.82;101696.19;105767;1254;71879;-80
2024/01/22 06:37:16;;;;;;;22.40;12.60;;;;;;;-4.64;78.67;101699.66;105815;1257;59998;-80
2024/01/22 06:39:44;;;;;;;22.70;14.40;;;;;;;-4.55;78.48;101703.84;106055;1259;59592;-80
2024/01/22 06:42:11;;;;;;;23.90;14.30;;;;;;;-4.46;78.18;101706.98;107221;1254;72884;-81
2024/01/22 06:44:49;;;;;;;22.70;14.40;;;;;;;-4.47;78.31;101697.33;107874;1254;68818;-81
2024/01/22 06:47:17;;;;;;;22.90;14.80;;;;;;;-4.51;78.35;101704.48;109074;1253;71887;-82
2024/01/22 06:49:44;;;;;;;22.30;14.10;;;;;;;-4.52;78.30;101700.50;108302;1254;58015;-80
2024/01/22 06:52:13;;;;;;;18.70;12.30;;;;;;;-4.50;78.33;101701.00;106592;1254;59804;-80
2024/01/22 06:54:40;;;;;;;25.50;15.70;;;;;;;-4.39;78.04;101691.13;106551;1254;71591;-81
2024/01/22 06:57:07;;;;;;;26.30;16.60;;;;;;;-4.34;77.90;101695.90;105928;1254;70147;-80
2024/01/22 06:59:35;;;;;;;24.90;15.70;;;;;;;-4.40;77.93;101697.88;105977;1254;70436;-79
2024/01/22 07:02:03;;;;;;;22.70;14.60;;;;;;;-4.44;78.03;101697.42;105973;1254;59619;-80
2024/01/22 07:04:30;;;;;;;22.90;15.10;;;;;;;-4.41;77.95;101701.36;105815;1254;59670;-80
2024/01/22 07:06:58;;;;;;;22.40;14.30;;;;;;;-4.31;77.70;101708.13;105993;1253;72742;-80
2024/01/22 07:09:25;;;;;;;28.60;18.10;;;;;;;-4.32;77.78;101711.27;105716;1254;70106;-79
2024/01/22 07:11:53;;;;;;;30.80;17.40;;;;;;;-4.35;78.05;101722.39;106310;1257;71401;-79
2024/01/22 07:14:21;;;;;;;38.00;19.90;;;;;;;-4.37;77.93;101720.33;106248;1259;59584;-80
2024/01/22 07:16:48;;;;;;;24.70;16.00;;;;;;;-4.35;77.99;101725.48;106144;1254;60316;-80
2024/01/22 07:19:16;;;;;;;25.80;15.60;;;;;;;-4.24;77.64;101723.23;106628;1254;71765;-78
2024/01/22 07:21:46;;;;;;;26.20;16.60;;;;;;;-4.22;77.60;101730.11;106724;1258;69251;-78
2024/01/22 07:24:14;;;;;;;24.40;15.40;;;;;;;-4.27;77.56;101735.05;106009;1254;72739;-78
2024/01/22 07:26:42;;;;;;;27.70;16.70;;;;;;;-4.32;77.72;101735.14;107335;1253;59705;-79
2024/01/22 07:29:10;;;;;;;27.80;16.40;;;;;;;-4.32;77.84;101730.11;107874;1256;60026;-79
2024/01/22 07:31:37;;;;;;;28.50;16.80;;;;;;;-4.18;77.74;101724.70;105941;1254;71822;-79
2024/01/22 07:34:05;;;;;;;31.10;18.80;;;;;;;-4.07;77.66;101722.96;106035;1259;68762;-78
2024/01/22 07:36:33;;;;;;;28.40;17.80;;;;;;;-4.04;77.74;101726.55;106239;1254;72710;-79
2024/01/22 07:39:01;;;;;;;27.50;17.80;;;;;;;-4.00;77.42;101737.38;106210;1253;59798;-79
2024/01/22 07:41:28;;;;;;;27.60;15.70;;;;;;;-3.97;77.27;101740.27;106851;1253;60752;-80
2024/01/22 07:43:56;;;;;;;27.80;16.10;;;;;;;-3.87;76.73;101736.64;107706;1261;73565;-80
2024/01/22 07:46:24;;;;;;;28.40;17.10;;;;;;;-3.73;76.63;101737.95;108317;1253;70124;-80
2024/01/22 07:48:52;;;;;;;26.90;15.80;;;;;;;-3.66;76.33;101736.95;107673;1257;71398;-80
2024/01/22 07:51:20;;;;;;;25.80;16.00;;;;;;;-3.68;75.75;101738.02;106514;1259;59676;-81
2024/01/22 07:53:49;;;;;;;27.20;15.70;;;;;;;-3.73;75.59;101728.59;106258;1259;60123;-82
2024/01/22 07:56:16;;;;;;;21.80;13.40;;;;;;;-3.77;75.54;101725.90;105784;1260;73052;-81
2024/01/22 07:58:44;;;;;;;21.40;13.00;;;;;;;-3.75;75.43;101725.35;105988;1259;68946;-81
2024/01/22 08:01:12;;;;;;;18.90;12.10;;;;;;;-3.68;75.39;101743.23;106684;1253;72673;-81
2024/01/22 08:03:39;;;;;;;20.40;12.80;;;;;;;-3.72;75.04;101741.73;106810;1255;59741;-81
2024/01/22 08:06:07;;;;;;;21.20;12.00;;;;;;;-3.82;75.18;101740.17;105800;1254;60494;-81
2024/01/22 08:08:35;;;;;;;20.30;12.50;;;;;;;-3.93;75.03;101741.59;106218;1253;72912;-81
2024/01/22 08:11:02;;;;;;;18.20;10.30;;;;;;;-4.01;75.38;101742.93;105800;1253;70144;-80
2024/01/22 08:13:30;;;;;;;19.40;12.30;;;;;;;-3.98;75.62;101736.64;105798;1261;72967;-80
2024/01/22 08:15:57;;;;;;;18.20;12.10;;;;;;;-3.91;75.58;101727.19;105688;1254;61412;-80
2024/01/22 08:18:25;;;;;;;21.10;13.40;;;;;;;-3.90;75.54;101735.14;105742;1259;59523;-80
2024/01/22 08:20:53;;;;;;;30.20;17.50;;;;;;;-3.91;75.71;101733.08;105898;1259;73213;-80
2024/01/22 08:23:20;;;;;;;27.00;14.00;;;;;;;-3.91;75.73;101739.30;105876;1254;70009;-80
2024/01/22 08:25:48;;;;;;;21.80;12.00;;;;;;;-3.86;75.57;101751.33;105891;1257;72447;-81
2024/01/22 08:28:15;;;;;;;25.70;12.90;;;;;;;-3.81;75.37;101737.89;105871;1253;59643;-81
2024/01/22 08:30:43;;;;;;;25.00;12.60;;;;;;;-3.84;75.15;101730.52;105986;1254;62004;-80
2024/01/22 08:33:10;;;;;;;22.30;12.90;;;;;;;-3.91;75.44;101724.42;106067;1255;73016;-80
2024/01/22 08:35:38;;;;;;;22.90;12.60;;;;;;;-3.97;75.46;101720.02;105958;1254;69996;-81
2024/01/22 08:38:06;;;;;;;25.30;14.60;;;;;;;-3.95;75.32;101721.71;106562;1255;73269;-80
2024/01/22 08:40:34;;;;;;;24.30;14.80;;;;;;;-3.90;75.43;101722.66;107555;1253;60596;-81
2024/01/22 08:43:01;;;;;;;22.60;15.40;;;;;;;-3.90;75.36;101714.34;107982;1254;60194;-82
2024/01/22 08:45:29;;;;;;;23.00;14.10;;;;;;;-3.87;75.59;101710.14;107680;1254;71784;-81
2024/01/22 08:47:56;;;;;;;23.60;14.10;;;;;;;-3.79;75.77;101704.80;106972;1253;70369;-81
2024/01/22 08:50:26;;;;;;;24.30;13.70;;;;;;;-3.62;75.48;101705.00;106997;1254;72906;-82
2024/01/22 08:52:54;;;;;;;20.90;13.40;;;;;;;-3.47;75.19;101704.20;106343;1254;60076;-80
2024/01/22 08:55:25;;;;;;;23.90;15.20;;;;;;;-3.42;75.10;101695.95;105995;1259;59596;-78
2024/01/22 08:57:53;;;;;;;26.90;16.50;;;;;;;-3.38;75.04;101686.87;105757;1259;73026;-78
2024/01/22 09:00:21;;;;;;;21.10;14.50;;;;;;;-3.36;74.72;101679.02;106346;1254;72435;-79
2024/01/22 09:02:49;;;;;;;18.30;11.20;;;;;;;-3.33;74.79;101673.25;106332;1253;71420;-78
2024/01/22 09:05:17;;;;;;;17.80;11.80;;;;;;;-3.22;74.32;101674.05;105868;1258;59556;-81
2024/01/22 09:07:48;;;;;;;17.50;11.00;;;;;;;-3.14;73.76;101661.24;106247;1254;62469;-80
2024/01/22 09:10:16;;;;;;;23.10;13.90;;;;;;;-3.20;73.57;101658.58;106222;1254;73421;-80
2024/01/22 09:12:44;;;;;;;17.40;10.60;;;;;;;-3.27;73.56;101661.34;106409;1259;69215;-80
2024/01/22 09:15:12;;;;;;;21.50;12.40;;;;;;;-3.33;73.40;101658.17;106149;1257;71950;-80
2024/01/22 09:17:40;;;;;;;15.70;10.30;;;;;;;-3.41;73.41;101656.95;106615;1255;60476;-81
2024/01/22 09:20:09;;;;;;;16.80;10.70;;;;;;;-3.39;73.52;101636.64;106742;1254;59525;-80
2024/01/22 09:22:37;;;;;;;16.60;11.00;;;;;;;-3.33;73.60;101639.30;106622;1259;72158;-79
2024/01/22 09:25:05;;;;;;;22.90;13.70;;;;;;;-3.32;73.91;101624.02;106284;1254;68695;-80
2024/01/22 09:27:33;;;;;;;22.30;13.80;;;;;;;-3.28;74.08;101614.91;107083;1256;74816;-80
2024/01/22 09:30:00;;;;;;;22.40;14.80;;;;;;;-3.24;73.89;101617.59;107255;1254;59503;-79
2024/01/22 09:32:31;;;;;;;18.70;12.50;;;;;;;-3.19;73.59;101622.17;106978;1253;61403;-80
2024/01/22 09:34:58;;;;;;;17.90;12.20;;;;;;;-3.09;73.41;101625.41;106428;1262;75049;-79
2024/01/22 09:37:26;;;;;;;16.80;11.70;;;;;;;-2.91;73.14;101620.67;106423;1262;72665;-82
2024/01/22 09:39:54;;;;;;;16.70;12.10;;;;;;;-2.84;72.64;101619.13;107264;1253;70996;-80
2024/01/22 09:42:27;;;;;;;20.00;12.90;;;;;;;-2.83;72.30;101606.96;109265;1253;60268;-81
2024/01/22 09:44:55;;;;;;;22.80;13.00;;;;;;;-2.83;72.44;101590.48;109060;1253;59755;-80
2024/01/22 09:47:23;;;;;;;19.20;12.30;;;;;;;-2.80;72.35;101613.47;107353;1253;74751;-80
2024/01/22 09:49:51;;;;;;;19.20;12.30;;;;;;;-2.84;71.98;101595.00;106876;1254;70439;-80
2024/01/22 09:52:18;;;;;;;19.80;13.00;;;;;;;-2.88;72.21;101583.65;107107;1254;72801;-80
2024/01/22 09:54:46;;;;;;;16.60;11.20;;;;;;;-2.78;72.23;101584.13;106385;1254;63990;-80
2024/01/22 09:57:17;;;;;;;17.30;11.60;;;;;;;-2.70;71.87;101593.45;106213;1260;60447;-80
2024/01/22 09:59:45;;;;;;;20.00;13.30;;;;;;;-2.73;71.93;101591.09;107437;1258;74490;-81
2024/01/22 10:02:14;;;;;;;19.10;12.80;;;;;;;-2.77;72.11;101589.46;106261;1260;69055;-81
2024/01/22 10:04:43;;;;;;;21.10;13.80;;;;;;;-2.81;72.16;101575.52;106286;1260;72129;-80
2024/01/22 10:07:13;;;;;;;17.00;10.90;;;;;;;-2.85;72.31;101589.47;106179;1254;60492;-81
2024/01/22 10:09:42;;;;;;;16.60;11.50;;;;;;;-2.91;71.98;101592.73;106035;1253;60520;-78
2024/01/22 10:12:10;;;;;;;18.20;12.90;;;;;;;-2.90;72.10;101573.13;106243;1259;71666;-80
2024/01/22 10:14:37;;;;;;;21.30;12.00;;;;;;;-2.85;72.37;101565.72;106066;1259;70309;-79
2024/01/22 10:17:20;;;;;;;23.40;13.80;;;;;;;-2.82;72.37;101555.93;105928;1256;72750;-80
2024/01/22 10:19:49;;;;;;;23.10;14.90;;;;;;;-2.77;72.52;101549.59;106154;1259;60573;-79
2024/01/22 10:22:20;;;;;;;19.30;13.00;;;;;;;-2.72;72.44;101549.44;106028;1252;60668;-79
2024/01/22 10:24:59;;;;;;;18.70;11.60;;;;;;;-2.63;72.01;101561.53;106010;1253;75938;-80
2024/01/22 10:27:27;;;;;;;18.90;12.80;;;;;;;-2.57;71.34;101547.50;106286;1254;72789;-80
2024/01/22 10:30:12;;;;;;;18.70;11.30;;;;;;;-2.59;71.14;101537.30;108650;1254;73604;-82
2024/01/22 10:32:40;;;;;;;26.00;16.50;;;;;;;-2.49;71.22;101535.67;107743;1254;61117;-76
2024/01/22 10:35:26;;;;;;;28.90;16.90;;;;;;;-2.46;71.37;101522.73;107277;1257;60198;-77
2024/01/22 10:38:13;;;;;;;20.30;14.20;;;;;;;-2.38;71.36;101532.42;106519;1253;74129;-77
2024/01/22 10:40:41;;;;;;;18.10;11.80;;;;;;;-2.23;70.74;101541.41;108283;1253;69241;-79
2024/01/22 10:43:24;;;;;;;19.70;12.00;;;;;;;-2.13;69.79;101535.57;108183;1253;70845;-80
2024/01/22 10:45:53;;;;;;;18.60;12.90;;;;;;;-2.03;69.48;101524.33;106285;1259;60465;-80
2024/01/22 10:48:27;;;;;;;20.60;12.60;;;;;;;-1.90;69.42;101529.16;106235;1260;62407;-78
2024/01/22 10:51:10;;;;;;;19.60;12.60;;;;;;;-1.86;69.10;101534.64;105815;1257;75911;-78
2024/01/22 10:53:39;;;;;;;19.60;12.70;;;;;;;-1.90;69.05;101511.64;105860;1259;72264;-77
2024/01/22 10:56:18;;;;;;;17.90;13.20;;;;;;;-1.80;69.22;101507.52;105911;1259;74868;-77
2024/01/22 10:58:46;;;;;;;19.60;12.40;;;;;;;-1.74;69.08;101505.44;105850;1259;60535;-79
2024/01/22 11:01:19;;;;;;;19.20;13.30;;;;;;;-1.79;68.68;101501.23;105826;1259;60561;-80
2024/01/22 11:03:52;;;;;;;20.90;13.80;;;;;;;-1.89;68.95;101495.44;106591;1259;75461;-81
2024/01/22 11:06:24;;;;;;;22.30;14.00;;;;;;;-1.96;69.34;101491.68;105875;1254;71606;-81
2024/01/22 11:08:54;;;;;;;19.80;13.50;;;;;;;-1.98;69.45;101496.23;105886;1259;72633;-81
2024/01/22 11:11:26;;;;;;;19.50;13.60;;;;;;;-1.99;69.39;101498.16;106028;1257;61504;-81
2024/01/22 11:13:56;;;;;;;16.30;11.60;;;;;;;-1.95;69.19;101509.35;106285;1258;62310;-79